North Londonderry, Pennsylvania
Current Conditions -  °F | °C
As of 2:58 PM on Wednesday 28 Jan 2015 (Local Time) from KMUI Reporting Station
Clear Clear  
Wind Chill: 22°   Ceiling: Unl
Heat Index: 32°   Visibility: 10mi
Dew Point:   Wind: 14mph
Humidity: 27%   Direction: 320°NW
Pressure: 30.17"   Gusts: 22mph
Location:  40.2909°N, 76.5834°W
Report Text: KMUI 281958Z AUTO 32012G19KT 10SM CLR 00/M17 A3017 RMK AO2 SLP226 T10021175
Loading
Personal Weather Stations






























Interactive Weather Map New forecast layout! Learn more

10-Day Weather Forecast

Advertisements
Track Severe Weather on mobile